createdAt,value
2019-05-30T00:00:28.137Z,48.00
2019-05-30T00:01:28.130Z,48.00
2019-05-30T00:02:28.120Z,52.00
2019-05-30T00:03:28.252Z,52.00
2019-05-30T00:04:28.094Z,60.00
2019-05-30T00:05:28.089Z,60.00
2019-05-30T00:06:28.088Z,64.00
2019-05-30T00:07:28.109Z,68.00
2019-05-30T00:08:28.064Z,72.00
2019-05-30T00:09:28.052Z,76.00
2019-05-30T00:10:28.037Z,84.00
2019-05-30T00:11:28.035Z,88.00
2019-05-30T00:12:28.006Z,92.00
2019-05-30T00:13:27.996Z,96.00
2019-05-30T00:14:28.035Z,100.00
2019-05-30T00:15:27.974Z,104.00
2019-05-30T00:16:27.977Z,112.00
2019-05-30T00:17:27.950Z,120.00
2019-05-30T00:18:27.948Z,124.00
2019-05-30T00:19:27.960Z,132.00
2019-05-30T00:20:27.921Z,140.00
2019-05-30T00:21:27.914Z,148.00
2019-05-30T00:22:27.903Z,160.00
2019-05-30T00:23:27.887Z,164.00
2019-05-30T00:24:27.917Z,172.00
2019-05-30T00:25:38.276Z,184.00
2019-05-30T00:26:27.852Z,192.00
2019-05-30T00:27:35.340Z,200.00
2019-05-30T00:28:27.837Z,212.00
2019-05-30T00:29:27.823Z,224.00
2019-05-30T00:30:27.827Z,236.00
2019-05-30T00:31:27.811Z,244.00
2019-05-30T00:32:27.797Z,260.00
2019-05-30T00:33:27.781Z,272.00
2019-05-30T00:34:27.787Z,284.00
2019-05-30T00:35:27.791Z,296.00
2019-05-30T00:36:27.753Z,312.00
2019-05-30T00:37:27.742Z,332.00
2019-05-30T00:38:27.729Z,348.00
2019-05-30T00:39:27.726Z,360.00
2019-05-30T00:40:27.757Z,380.00
2019-05-30T00:41:27.699Z,396.00
2019-05-30T00:42:27.719Z,416.00
2019-05-30T00:43:27.674Z,436.00
2019-05-30T00:44:28.172Z,456.00
2019-05-30T00:45:27.660Z,476.00
2019-05-30T00:46:27.656Z,496.00
2019-05-30T00:47:27.639Z,512.00
2019-05-30T00:48:27.632Z,536.00
2019-05-30T00:49:27.616Z,560.00
2019-05-30T00:50:27.605Z,584.00
2019-05-30T00:51:27.610Z,608.00
2019-05-30T00:52:27.581Z,636.00
2019-05-30T00:53:27.569Z,660.00
2019-05-30T00:54:27.562Z,692.00
2019-05-30T00:55:27.546Z,724.00
2019-05-30T00:56:27.584Z,752.00
2019-05-30T00:57:27.524Z,788.00
2019-05-30T00:58:37.721Z,824.00
2019-05-30T00:59:27.507Z,856.00
2019-05-30T01:00:42.779Z,896.00
2019-05-30T01:01:28.505Z,932.00
2019-05-30T01:02:27.460Z,972.00
2019-05-30T01:03:27.459Z,1016.00
2019-05-30T01:04:27.445Z,1056.00
2019-05-30T01:05:27.443Z,1100.00
2019-05-30T01:06:27.433Z,1140.00
2019-05-30T01:07:27.457Z,1184.00
2019-05-30T01:08:27.429Z,1228.00
2019-05-30T01:09:27.398Z,1276.00
2019-05-30T01:10:27.382Z,1328.00
2019-05-30T01:11:27.368Z,1376.00
2019-05-30T01:12:27.390Z,1424.00
2019-05-30T01:13:27.356Z,1476.00
2019-05-30T01:14:27.343Z,1524.00
2019-05-30T01:15:27.326Z,1572.00
2019-05-30T01:16:27.315Z,1624.00
2019-05-30T01:17:27.302Z,1676.00
2019-05-30T01:18:27.361Z,1728.00
2019-05-30T01:19:27.283Z,1776.00
2019-05-30T01:20:27.271Z,1828.00
2019-05-30T01:21:27.261Z,1880.00
2019-05-30T01:22:27.259Z,1932.00
2019-05-30T01:23:27.246Z,1980.00
2019-05-30T01:24:27.228Z,2028.00
2019-05-30T01:25:27.219Z,2084.00
2019-05-30T01:26:27.203Z,2132.00
2019-05-30T01:27:27.191Z,2188.00
2019-05-30T01:28:27.238Z,2236.00
2019-05-30T01:29:38.555Z,2284.00
2019-05-30T01:30:27.158Z,2336.00
2019-05-30T01:31:27.148Z,2384.00
2019-05-30T01:32:27.146Z,2432.00
2019-05-30T01:33:27.135Z,2484.00
2019-05-30T01:34:27.124Z,2532.00
2019-05-30T01:35:27.111Z,2580.00
2019-05-30T01:36:27.106Z,2632.00
2019-05-30T01:37:27.088Z,2684.00
2019-05-30T01:38:27.085Z,2740.00
2019-05-30T01:39:27.106Z,2788.00
2019-05-30T01:40:27.060Z,2840.00
2019-05-30T01:41:27.042Z,2892.00
2019-05-30T01:42:27.029Z,2944.00
2019-05-30T01:43:27.041Z,3000.00
2019-05-30T01:44:27.008Z,3056.00
2019-05-30T01:45:27.019Z,3112.00
2019-05-30T01:46:26.991Z,3168.00
2019-05-30T01:47:26.980Z,3220.00
2019-05-30T01:48:26.968Z,3280.00
2019-05-30T01:49:27.002Z,3336.00
2019-05-30T01:50:26.957Z,3396.00
2019-05-30T01:51:26.943Z,3456.00
2019-05-30T01:52:26.923Z,3512.00
2019-05-30T01:53:26.912Z,3572.00
2019-05-30T01:54:26.903Z,3632.00
2019-05-30T01:55:26.902Z,3692.00
2019-05-30T01:56:26.881Z,3736.00
2019-05-30T01:57:26.881Z,3800.00
2019-05-30T01:58:26.857Z,3848.00
2019-05-30T01:59:26.849Z,3908.00
2019-05-30T02:00:37.278Z,3960.00
2019-05-30T02:01:26.827Z,4012.00
2019-05-30T02:02:26.813Z,4052.00
2019-05-30T02:03:26.796Z,4104.00
2019-05-30T02:04:26.785Z,4140.00
2019-05-30T02:05:26.798Z,4188.00
2019-05-30T02:06:26.764Z,4232.00
2019-05-30T02:07:26.766Z,4272.00
2019-05-30T02:08:26.752Z,4316.00
2019-05-30T02:09:26.735Z,4352.00
2019-05-30T02:10:26.731Z,4396.00
2019-05-30T02:11:26.727Z,4428.00
2019-05-30T02:12:26.705Z,4472.00
2019-05-30T02:13:26.690Z,4508.00
2019-05-30T02:14:26.687Z,4540.00
2019-05-30T02:15:26.675Z,4576.00
2019-05-30T02:16:26.674Z,4608.00
2019-05-30T02:17:26.661Z,4652.00
2019-05-30T02:18:26.641Z,4688.00
2019-05-30T02:19:26.665Z,4720.00
2019-05-30T02:20:26.615Z,4764.00
2019-05-30T02:21:26.608Z,4796.00
2019-05-30T02:22:26.607Z,4844.00
2019-05-30T02:23:26.602Z,4880.00
2019-05-30T02:24:26.574Z,4912.00
2019-05-30T02:25:26.570Z,4948.00
2019-05-30T02:26:26.579Z,4988.00
2019-05-30T02:27:26.555Z,5024.00
2019-05-30T02:28:26.529Z,5068.00
2019-05-30T02:29:26.521Z,5088.00
2019-05-30T02:30:26.508Z,5128.00
2019-05-30T02:31:39.314Z,5172.00
2019-05-30T02:32:26.506Z,5200.00
2019-05-30T02:33:26.470Z,5236.00
2019-05-30T02:34:26.469Z,5272.00
2019-05-30T02:35:26.457Z,5316.00
2019-05-30T02:36:26.449Z,5352.00
2019-05-30T02:37:26.436Z,5400.00
2019-05-30T02:38:26.422Z,5428.00
2019-05-30T02:39:26.407Z,5460.00
2019-05-30T02:40:26.393Z,5508.00
2019-05-30T02:41:26.416Z,5536.00
2019-05-30T02:42:26.386Z,5564.00
2019-05-30T02:43:26.412Z,5616.00
2019-05-30T02:44:26.381Z,5640.00
2019-05-30T02:45:26.362Z,5672.00
2019-05-30T02:46:26.348Z,5712.00
2019-05-30T02:47:26.312Z,5740.00
2019-05-30T02:48:26.312Z,5764.00
2019-05-30T02:49:26.311Z,5812.00
2019-05-30T02:50:26.295Z,5852.00
2019-05-30T02:51:26.267Z,5884.00
2019-05-30T02:52:26.267Z,5920.00
2019-05-30T02:53:26.261Z,5956.00
2019-05-30T02:54:26.265Z,5992.00
2019-05-30T02:55:26.232Z,6024.00
2019-05-30T02:56:26.231Z,6068.00
2019-05-30T02:57:26.219Z,6100.00
2019-05-30T02:58:26.193Z,6152.00
2019-05-30T02:59:26.251Z,6208.00
2019-05-30T03:00:26.186Z,6252.00
2019-05-30T03:01:26.182Z,6292.00
2019-05-30T03:02:36.405Z,6348.00
2019-05-30T03:03:26.141Z,6432.00
2019-05-30T03:04:26.146Z,6516.00
2019-05-30T03:05:26.139Z,6664.00
2019-05-30T03:06:26.102Z,9040.00
2019-05-30T03:07:26.103Z,13648.00
2019-05-30T03:08:26.094Z,20256.00
2019-05-30T03:09:26.070Z,26688.00
2019-05-30T03:10:26.071Z,32288.00
2019-05-30T03:11:26.070Z,36992.00
2019-05-30T03:12:33.040Z,39264.00
2019-05-30T03:13:26.032Z,38944.00
2019-05-30T03:14:26.029Z,39328.00
2019-05-30T03:15:26.029Z,40224.00
2019-05-30T03:16:25.994Z,39968.00
2019-05-30T03:17:25.982Z,39808.00
2019-05-30T03:18:25.969Z,40032.00
2019-05-30T03:19:25.979Z,39968.00
2019-05-30T03:20:25.988Z,39840.00
2019-05-30T03:21:25.945Z,39776.00
2019-05-30T03:22:25.937Z,39136.00
2019-05-30T03:23:25.949Z,39488.00
2019-05-30T03:24:25.930Z,39264.00
2019-05-30T03:25:25.894Z,40000.00
2019-05-30T03:26:25.899Z,40480.00
2019-05-30T03:27:25.887Z,40544.00
2019-05-30T03:28:25.872Z,40768.00
2019-05-30T03:29:25.852Z,40928.00
2019-05-30T03:30:29.074Z,40032.00
2019-05-30T03:31:29.169Z,40128.00
2019-05-30T03:33:38.794Z,38688.00
2019-05-30T03:34:29.167Z,38112.00
2019-05-30T03:35:30.182Z,38688.00
2019-05-30T03:36:30.589Z,39360.00
2019-05-30T03:37:29.121Z,38784.00
2019-05-30T03:38:25.770Z,38304.00
2019-05-30T03:39:25.780Z,36832.00
2019-05-30T03:40:27.788Z,36928.00
2019-05-30T03:41:25.736Z,37568.00
2019-05-30T03:42:25.741Z,38016.00
2019-05-30T03:43:35.796Z,38624.00
2019-05-30T03:44:25.694Z,38464.00
2019-05-30T03:45:25.679Z,38304.00
2019-05-30T03:46:25.687Z,37568.00
2019-05-30T03:47:25.710Z,37632.00
2019-05-30T03:48:25.653Z,37920.00
2019-05-30T03:49:25.657Z,37472.00
2019-05-30T03:50:25.646Z,37312.00
2019-05-30T03:51:25.633Z,36992.00
2019-05-30T03:52:25.613Z,37472.00
2019-05-30T03:53:25.612Z,38176.00
2019-05-30T03:54:25.594Z,38016.00
2019-05-30T03:55:25.584Z,37248.00
2019-05-30T03:56:25.584Z,36704.00
2019-05-30T03:57:25.570Z,36960.00
2019-05-30T03:58:25.570Z,36192.00
2019-05-30T03:59:25.536Z,35168.00
2019-05-30T04:00:25.533Z,35072.00
2019-05-30T04:01:25.530Z,33696.00
2019-05-30T04:02:25.527Z,31808.00
2019-05-30T04:03:25.516Z,32256.00
2019-05-30T04:04:25.513Z,33728.00
2019-05-30T04:05:25.473Z,33216.00
2019-05-30T04:06:25.453Z,32480.00
2019-05-30T04:07:25.481Z,32736.00
2019-05-30T04:08:25.486Z,32352.00
2019-05-30T04:09:25.502Z,31264.00
2019-05-30T04:10:25.424Z,31616.00
2019-05-30T04:11:25.405Z,32640.00
2019-05-30T04:12:25.412Z,32576.00
2019-05-30T04:13:25.380Z,31872.00
2019-05-30T04:14:35.907Z,31136.00
2019-05-30T04:15:25.362Z,30912.00
2019-05-30T04:16:25.369Z,31296.00
2019-05-30T04:17:25.336Z,31232.00
2019-05-30T04:18:25.335Z,30752.00
2019-05-30T04:19:25.336Z,30208.00
2019-05-30T04:20:25.332Z,30080.00
2019-05-30T04:21:25.304Z,29088.00
2019-05-30T04:22:25.294Z,30016.00
2019-05-30T04:23:25.288Z,30592.00
2019-05-30T04:24:25.283Z,30496.00
2019-05-30T04:25:25.264Z,29440.00
2019-05-30T04:26:25.261Z,29728.00
2019-05-30T04:27:25.233Z,30784.00
2019-05-30T04:28:25.220Z,30240.00
2019-05-30T04:29:25.220Z,30624.00
2019-05-30T04:30:25.249Z,30400.00
2019-05-30T04:31:25.212Z,30144.00
2019-05-30T04:32:25.182Z,30592.00
2019-05-30T04:33:32.563Z,30112.00
2019-05-30T04:34:26.160Z,30272.00
2019-05-30T04:35:25.145Z,31168.00
2019-05-30T04:36:25.280Z,31648.00
2019-05-30T04:37:25.138Z,31104.00
2019-05-30T04:38:25.132Z,30816.00
2019-05-30T04:39:25.109Z,31040.00
2019-05-30T04:40:25.100Z,32160.00
2019-05-30T04:41:25.103Z,31968.00
2019-05-30T04:42:25.086Z,30912.00
2019-05-30T04:43:25.068Z,31712.00
2019-05-30T04:44:25.073Z,31776.00
2019-05-30T04:45:35.688Z,32128.00
2019-05-30T04:46:25.083Z,30752.00
2019-05-30T04:47:25.041Z,30368.00
2019-05-30T04:48:25.012Z,30688.00
2019-05-30T04:49:25.021Z,30208.00
2019-05-30T04:50:25.035Z,29920.00
2019-05-30T04:51:24.993Z,30944.00
2019-05-30T04:52:25.211Z,30976.00
2019-05-30T04:53:24.979Z,30688.00
2019-05-30T04:54:24.956Z,29280.00
2019-05-30T04:55:24.936Z,27968.00
2019-05-30T04:56:24.927Z,28288.00
2019-05-30T04:57:26.791Z,27968.00
2019-05-30T04:58:24.935Z,25952.00
2019-05-30T04:59:24.901Z,26816.00
2019-05-30T05:00:24.889Z,28704.00
2019-05-30T05:01:24.906Z,27488.00
2019-05-30T05:02:24.879Z,20640.00
2019-05-30T05:03:44.612Z,12964.00
2019-05-30T05:04:25.859Z,10928.00
2019-05-30T05:05:27.049Z,11760.00
2019-05-30T05:06:24.827Z,14220.00
2019-05-30T05:07:25.109Z,20128.00
2019-05-30T05:08:24.808Z,28736.00
2019-05-30T05:09:24.803Z,27712.00
2019-05-30T05:10:24.787Z,21056.00
2019-05-30T05:11:25.514Z,18848.00
2019-05-30T05:12:24.769Z,17312.00
2019-05-30T05:13:24.763Z,15116.00
2019-05-30T05:14:24.731Z,15164.00
2019-05-30T05:15:24.725Z,14872.00
2019-05-30T05:16:36.493Z,14044.00
2019-05-30T05:17:24.697Z,12980.00
2019-05-30T05:18:24.700Z,12484.00
2019-05-30T05:19:26.032Z,14260.00
2019-05-30T05:20:24.665Z,13732.00
2019-05-30T05:21:24.671Z,11884.00
2019-05-30T05:22:24.640Z,11644.00
2019-05-30T05:23:24.637Z,12188.00
2019-05-30T05:24:24.730Z,12644.00
2019-05-30T05:25:24.629Z,12112.00
2019-05-30T05:26:24.622Z,11732.00
2019-05-30T05:27:24.595Z,11980.00
2019-05-30T05:28:24.586Z,11796.00
2019-05-30T05:29:24.597Z,11276.00
2019-05-30T05:30:24.578Z,12100.00
2019-05-30T05:31:24.558Z,12676.00
2019-05-30T05:32:24.685Z,12216.00
2019-05-30T05:33:24.830Z,11596.00
2019-05-30T05:34:24.850Z,11368.00
2019-05-30T05:35:25.028Z,11848.00
2019-05-30T05:36:25.189Z,11820.00
2019-05-30T05:37:25.319Z,11968.00
2019-05-30T05:38:24.575Z,12256.00
2019-05-30T05:39:24.472Z,12000.00
2019-05-30T05:40:24.494Z,12532.00
2019-05-30T05:41:24.437Z,13340.00
2019-05-30T05:42:28.386Z,13748.00
2019-05-30T05:43:25.423Z,13864.00
2019-05-30T05:44:24.593Z,14336.00
2019-05-30T05:45:24.727Z,13628.00
2019-05-30T05:46:24.614Z,9396.00
2019-05-30T05:47:34.565Z,6980.00
2019-05-30T05:48:24.782Z,6776.00
2019-05-30T05:49:24.889Z,6716.00
2019-05-30T05:50:24.632Z,6704.00
2019-05-30T05:51:24.783Z,6708.00
2019-05-30T05:52:24.887Z,6728.00
2019-05-30T05:53:25.134Z,6732.00
2019-05-30T05:54:25.042Z,6748.00
2019-05-30T05:55:24.987Z,6756.00
2019-05-30T05:56:24.913Z,6756.00
2019-05-30T05:57:25.019Z,6768.00
2019-05-30T05:58:26.135Z,6776.00
2019-05-30T05:59:25.212Z,6800.00
2019-05-30T06:00:25.287Z,6792.00
2019-05-30T06:01:25.413Z,6776.00
2019-05-30T06:02:25.190Z,6780.00
2019-05-30T06:03:24.338Z,6784.00
2019-05-30T06:04:25.249Z,6796.00
2019-05-30T06:05:24.387Z,6792.00
2019-05-30T06:06:25.325Z,6788.00
2019-05-30T06:07:24.595Z,6784.00
2019-05-30T06:08:24.179Z,6788.00
2019-05-30T06:09:24.638Z,6788.00
2019-05-30T06:10:24.128Z,6800.00
2019-05-30T06:11:24.620Z,6800.00
2019-05-30T06:12:24.106Z,6804.00
2019-05-30T06:13:24.851Z,6808.00
2019-05-30T06:14:24.247Z,6812.00
2019-05-30T06:15:24.981Z,6800.00
2019-05-30T06:16:24.195Z,6808.00
2019-05-30T06:17:25.087Z,6804.00
2019-05-30T06:18:36.518Z,6812.00
2019-05-30T06:19:25.256Z,6812.00
2019-05-30T06:20:24.020Z,6808.00
2019-05-30T06:21:24.022Z,6796.00
2019-05-30T06:22:23.999Z,6804.00
2019-05-30T06:23:23.983Z,6788.00
2019-05-30T06:24:24.038Z,6788.00
2019-05-30T06:25:25.244Z,6788.00
2019-05-30T06:26:25.917Z,6800.00
2019-05-30T06:27:24.061Z,6792.00
2019-05-30T06:28:24.218Z,6792.00
2019-05-30T06:29:24.147Z,6788.00
2019-05-30T06:30:24.453Z,6788.00
2019-05-30T06:31:24.474Z,6784.00
2019-05-30T06:32:24.655Z,6784.00
2019-05-30T06:33:24.989Z,6768.00
2019-05-30T06:34:34.790Z,6776.00
2019-05-30T06:35:25.058Z,6764.00
2019-05-30T06:36:25.016Z,6760.00
2019-05-30T06:37:25.132Z,6760.00
2019-05-30T06:38:23.834Z,6760.00
2019-05-30T06:39:23.811Z,6756.00
2019-05-30T06:40:23.833Z,6740.00
2019-05-30T06:41:23.797Z,6744.00
2019-05-30T06:42:23.784Z,6728.00
2019-05-30T06:43:24.361Z,6728.00
2019-05-30T06:44:24.007Z,6740.00
2019-05-30T06:45:25.185Z,6776.00
2019-05-30T06:46:24.159Z,6740.00
2019-05-30T06:47:24.364Z,6724.00
2019-05-30T06:48:24.619Z,6684.00
2019-05-30T06:49:34.368Z,6680.00
2019-05-30T06:50:24.733Z,6688.00
2019-05-30T06:51:24.772Z,6712.00
2019-05-30T06:52:24.875Z,6712.00
2019-05-30T06:53:23.673Z,6756.00
2019-05-30T06:54:24.697Z,6756.00
2019-05-30T06:55:23.672Z,6784.00
2019-05-30T06:56:23.639Z,6800.00
2019-05-30T06:57:23.635Z,6796.00
2019-05-30T06:58:39.114Z,6804.00
2019-05-30T06:59:25.532Z,6820.00
2019-05-30T07:00:23.748Z,6820.00
2019-05-30T07:01:23.831Z,6828.00
2019-05-30T07:02:24.253Z,6844.00
2019-05-30T07:03:24.289Z,6852.00
2019-05-30T07:04:25.200Z,6844.00
2019-05-30T07:05:25.585Z,6876.00
2019-05-30T07:06:25.112Z,6864.00
2019-05-30T07:07:24.925Z,6852.00
2019-05-30T07:08:24.634Z,6840.00
2019-05-30T07:09:24.819Z,6904.00
2019-05-30T07:10:24.778Z,6908.00
2019-05-30T07:11:24.661Z,6904.00
2019-05-30T07:12:23.488Z,6912.00
2019-05-30T07:13:23.444Z,6812.00
2019-05-30T07:14:23.445Z,6804.00
2019-05-30T07:15:23.439Z,6788.00
2019-05-30T07:16:23.477Z,6768.00
2019-05-30T07:17:23.440Z,6764.00
2019-05-30T07:18:23.521Z,6776.00
2019-05-30T07:19:23.443Z,6780.00
2019-05-30T07:20:33.940Z,6788.00
2019-05-30T07:21:23.608Z,6796.00
2019-05-30T07:22:23.570Z,6800.00
2019-05-30T07:23:23.726Z,6804.00
2019-05-30T07:24:23.724Z,6796.00
2019-05-30T07:25:23.813Z,6776.00
2019-05-30T07:26:23.865Z,6760.00
2019-05-30T07:27:23.792Z,6752.00
2019-05-30T07:28:23.826Z,6752.00
2019-05-30T07:29:23.945Z,6752.00
2019-05-30T07:30:23.799Z,6744.00
2019-05-30T07:31:24.023Z,6756.00
2019-05-30T07:32:24.028Z,6748.00
2019-05-30T07:33:23.960Z,6756.00
2019-05-30T07:34:23.888Z,6760.00
2019-05-30T07:35:23.952Z,6764.00
2019-05-30T07:36:24.087Z,6768.00
2019-05-30T07:37:24.492Z,6772.00
2019-05-30T07:38:24.312Z,6780.00
2019-05-30T07:39:26.320Z,6784.00
2019-05-30T07:40:24.522Z,6784.00
2019-05-30T07:41:24.528Z,6788.00
2019-05-30T07:42:23.151Z,6792.00
2019-05-30T07:43:26.220Z,6804.00
2019-05-30T07:44:23.117Z,6808.00
2019-05-30T07:45:23.113Z,6808.00
2019-05-30T07:46:23.089Z,6812.00
2019-05-30T07:47:23.077Z,6816.00
2019-05-30T07:48:23.073Z,6824.00
2019-05-30T07:49:23.076Z,6816.00
2019-05-30T07:50:23.072Z,6812.00
2019-05-30T07:51:34.655Z,6800.00
2019-05-30T07:52:23.282Z,6848.00
2019-05-30T07:53:23.045Z,6844.00
2019-05-30T07:54:23.047Z,6848.00
2019-05-30T07:55:23.004Z,6844.00
2019-05-30T07:56:22.984Z,6840.00
2019-05-30T07:57:22.971Z,6840.00
2019-05-30T07:58:22.970Z,6856.00
2019-05-30T07:59:22.945Z,6860.00
2019-05-30T08:00:22.963Z,6856.00
2019-05-30T08:01:22.967Z,6868.00
2019-05-30T08:02:22.937Z,6888.00
2019-05-30T08:03:22.930Z,6892.00
2019-05-30T08:04:22.900Z,6892.00
2019-05-30T08:05:24.590Z,6900.00
2019-05-30T08:06:22.877Z,6900.00
2019-05-30T08:07:22.871Z,6900.00
2019-05-30T08:08:22.867Z,6912.00
2019-05-30T08:09:22.850Z,6924.00
2019-05-30T08:10:22.838Z,6928.00
2019-05-30T08:11:22.830Z,6932.00
2019-05-30T08:12:22.805Z,6936.00
2019-05-30T08:13:22.800Z,6944.00
2019-05-30T08:14:22.782Z,6948.00
2019-05-30T08:15:22.829Z,6940.00
2019-05-30T08:16:22.789Z,6944.00
2019-05-30T08:17:22.772Z,6952.00
2019-05-30T08:18:22.742Z,6964.00
2019-05-30T08:19:22.732Z,6972.00
2019-05-30T08:20:22.723Z,6992.00
2019-05-30T08:21:22.721Z,7012.00
2019-05-30T08:22:36.293Z,7020.00
2019-05-30T08:23:22.689Z,6996.00
2019-05-30T08:24:22.680Z,6976.00
2019-05-30T08:25:22.671Z,6968.00
2019-05-30T08:26:22.659Z,6984.00
2019-05-30T08:27:22.691Z,6988.00
2019-05-30T08:28:22.647Z,6972.00
2019-05-30T08:29:22.641Z,6992.00
2019-05-30T08:30:22.623Z,7020.00
2019-05-30T08:31:22.614Z,7012.00
2019-05-30T08:32:22.603Z,7036.00
2019-05-30T08:33:22.598Z,7052.00
2019-05-30T08:34:22.570Z,7028.00
2019-05-30T08:35:36.438Z,7000.00
2019-05-30T08:36:23.553Z,7008.00
2019-05-30T08:37:22.557Z,7020.00
2019-05-30T08:38:22.561Z,7028.00
2019-05-30T08:39:22.528Z,7028.00
2019-05-30T08:40:22.513Z,7044.00
2019-05-30T08:41:22.498Z,7060.00
2019-05-30T08:42:22.489Z,7076.00
2019-05-30T08:43:22.488Z,7080.00
2019-05-30T08:44:22.508Z,7088.00
2019-05-30T08:45:22.453Z,7084.00
2019-05-30T08:46:22.451Z,7084.00
2019-05-30T08:47:22.432Z,7096.00
2019-05-30T08:48:22.435Z,7104.00
2019-05-30T08:49:22.434Z,7096.00
2019-05-30T08:50:22.397Z,7112.00
2019-05-30T08:51:22.394Z,7124.00
2019-05-30T08:52:23.112Z,7132.00
2019-05-30T08:53:32.751Z,7144.00
2019-05-30T08:54:22.354Z,7160.00
2019-05-30T08:55:22.347Z,7164.00
2019-05-30T08:56:22.336Z,7112.00
2019-05-30T08:57:22.323Z,7176.00
2019-05-30T08:58:22.344Z,7176.00
2019-05-30T08:59:22.308Z,7180.00
2019-05-30T09:00:22.304Z,7200.00
2019-05-30T09:01:22.304Z,7196.00
2019-05-30T09:02:22.295Z,7212.00
2019-05-30T09:03:22.257Z,7216.00
2019-05-30T09:04:22.281Z,7208.00
2019-05-30T09:05:22.241Z,7208.00
2019-05-30T09:06:22.240Z,7208.00
2019-05-30T09:07:22.245Z,7232.00
2019-05-30T09:08:22.276Z,7220.00
2019-05-30T09:09:22.194Z,7200.00
2019-05-30T09:10:22.230Z,7228.00
2019-05-30T09:11:22.176Z,7228.00
2019-05-30T09:12:22.201Z,7232.00
2019-05-30T09:13:22.153Z,7236.00
2019-05-30T09:14:22.144Z,7248.00
2019-05-30T09:15:22.384Z,7248.00
2019-05-30T09:16:22.132Z,7260.00
2019-05-30T09:17:22.119Z,7264.00
2019-05-30T09:18:22.123Z,7268.00
2019-05-30T09:19:22.093Z,7272.00
2019-05-30T09:20:22.070Z,7312.00
2019-05-30T09:21:22.094Z,7300.00
2019-05-30T09:22:22.076Z,7296.00
2019-05-30T09:23:22.054Z,7324.00
2019-05-30T09:24:33.649Z,7300.00
2019-05-30T09:25:22.020Z,7288.00
2019-05-30T09:26:22.019Z,7332.00
2019-05-30T09:27:22.002Z,7384.00
2019-05-30T09:28:21.989Z,7388.00
2019-05-30T09:29:21.981Z,7352.00
2019-05-30T09:30:21.968Z,7336.00
2019-05-30T09:31:22.002Z,7304.00
2019-05-30T09:32:21.950Z,7288.00
2019-05-30T09:33:21.934Z,7296.00
2019-05-30T09:34:21.931Z,7300.00
2019-05-30T09:35:21.936Z,7324.00
2019-05-30T09:36:21.905Z,7316.00
2019-05-30T09:37:21.915Z,7332.00
2019-05-30T09:38:21.903Z,7328.00
2019-05-30T09:39:21.877Z,7312.00
2019-05-30T09:40:21.868Z,7320.00
2019-05-30T09:41:21.853Z,7336.00
2019-05-30T09:42:21.866Z,7348.00
2019-05-30T09:43:21.826Z,7408.00
2019-05-30T09:44:21.836Z,7392.00
2019-05-30T09:45:21.806Z,7368.00
2019-05-30T09:46:21.796Z,7368.00
2019-05-30T09:47:21.794Z,7368.00
2019-05-30T09:48:21.779Z,7368.00
2019-05-30T09:49:21.769Z,7380.00
2019-05-30T09:50:21.754Z,7376.00
2019-05-30T09:51:21.778Z,7384.00
2019-05-30T09:52:21.736Z,7368.00
2019-05-30T09:53:21.777Z,7348.00
2019-05-30T09:54:21.715Z,7332.00
2019-05-30T09:55:33.335Z,7336.00
2019-05-30T09:56:21.684Z,7336.00
2019-05-30T09:57:21.739Z,7336.00
2019-05-30T09:58:21.663Z,7340.00
2019-05-30T09:59:21.664Z,7324.00
2019-05-30T10:00:21.650Z,7324.00
2019-05-30T10:01:21.818Z,7324.00
2019-05-30T10:02:21.623Z,7320.00
2019-05-30T10:03:21.636Z,7344.00
2019-05-30T10:04:21.612Z,7296.00
2019-05-30T10:05:24.442Z,7320.00
2019-05-30T10:06:29.499Z,7336.00
2019-05-30T10:07:22.575Z,7356.00
2019-05-30T10:08:21.577Z,7356.00
2019-05-30T10:09:21.585Z,7404.00
2019-05-30T10:10:21.594Z,7468.00
2019-05-30T10:11:21.530Z,7380.00
2019-05-30T10:12:21.522Z,7396.00
2019-05-30T10:13:21.502Z,7400.00
2019-05-30T10:14:21.548Z,7404.00
2019-05-30T10:15:21.490Z,7392.00
2019-05-30T10:16:21.490Z,7400.00
2019-05-30T10:17:21.475Z,7392.00
2019-05-30T10:18:21.447Z,7400.00
2019-05-30T10:19:21.452Z,7408.00
2019-05-30T10:20:21.442Z,7440.00
2019-05-30T10:21:21.419Z,7440.00
2019-05-30T10:22:21.431Z,7456.00
2019-05-30T10:23:21.407Z,7444.00
2019-05-30T10:24:21.396Z,7480.00
2019-05-30T10:25:21.426Z,7524.00
2019-05-30T10:26:33.180Z,7532.00
2019-05-30T10:27:21.352Z,7600.00
2019-05-30T10:28:21.350Z,7840.00
2019-05-30T10:29:21.337Z,8040.00
2019-05-30T10:30:21.335Z,8120.00
2019-05-30T10:31:21.312Z,8032.00
2019-05-30T10:32:21.310Z,7836.00
2019-05-30T10:33:21.290Z,7720.00
2019-05-30T10:34:21.279Z,7632.00
2019-05-30T10:35:21.276Z,7584.00
2019-05-30T10:36:21.266Z,7580.00
2019-05-30T10:37:21.244Z,7564.00
2019-05-30T10:38:21.244Z,7584.00
2019-05-30T10:39:21.223Z,7592.00
2019-05-30T10:40:21.211Z,7540.00
2019-05-30T10:41:21.214Z,7428.00
2019-05-30T10:42:21.205Z,7384.00
2019-05-30T10:43:21.197Z,7380.00
2019-05-30T10:44:21.174Z,7372.00
2019-05-30T10:45:21.167Z,7380.00
2019-05-30T10:46:21.174Z,7376.00
2019-05-30T10:47:21.144Z,7380.00
2019-05-30T10:48:21.360Z,7400.00
2019-05-30T10:49:34.079Z,7448.00
2019-05-30T10:50:22.106Z,7460.00
2019-05-30T10:51:21.170Z,7432.00
2019-05-30T10:52:21.082Z,7416.00
2019-05-30T10:53:21.082Z,7392.00
2019-05-30T10:54:21.068Z,7380.00
2019-05-30T10:55:21.052Z,7372.00
2019-05-30T10:56:21.044Z,7368.00
2019-05-30T10:57:31.570Z,7376.00
2019-05-30T10:58:21.268Z,7356.00
2019-05-30T11:00:30.221Z,7360.00
2019-05-30T11:01:30.199Z,7380.00
2019-05-30T11:02:30.230Z,7364.00
2019-05-30T11:03:30.174Z,7340.00
2019-05-30T11:04:30.165Z,7348.00
2019-05-30T11:05:30.167Z,7360.00
2019-05-30T11:06:30.143Z,7368.00
2019-05-30T11:07:30.162Z,7380.00
2019-05-30T11:08:30.118Z,7368.00
2019-05-30T11:09:30.107Z,7364.00
2019-05-30T11:10:30.106Z,7364.00
2019-05-30T11:11:30.090Z,7360.00
2019-05-30T11:12:30.117Z,7376.00
2019-05-30T11:13:30.063Z,7448.00
2019-05-30T11:14:30.060Z,7388.00
2019-05-30T11:15:30.044Z,7416.00
2019-05-30T11:16:30.036Z,7396.00
2019-05-30T11:17:30.026Z,7372.00
2019-05-30T11:18:30.033Z,7348.00
2019-05-30T11:19:30.010Z,7344.00
2019-05-30T11:20:29.991Z,7336.00
2019-05-30T11:21:29.977Z,7348.00
2019-05-30T11:22:30.006Z,7352.00
2019-05-30T11:23:29.961Z,7356.00
2019-05-30T11:24:29.996Z,7360.00
2019-05-30T11:25:29.941Z,7372.00
2019-05-30T11:26:29.930Z,7372.00
2019-05-30T11:27:29.919Z,7388.00
2019-05-30T11:28:29.901Z,7380.00
2019-05-30T11:29:29.892Z,7396.00
2019-05-30T11:30:40.710Z,7400.00
2019-05-30T11:32:50.943Z,7420.00
2019-05-30T11:34:49.335Z,7436.00
2019-05-30T11:35:48.943Z,7448.00
2019-05-30T11:36:49.001Z,7456.00
2019-05-30T11:38:59.469Z,7580.00
2019-05-30T11:39:59.480Z,7700.00
2019-05-30T11:40:59.575Z,7820.00
2019-05-30T11:41:59.454Z,7856.00
2019-05-30T11:42:59.880Z,7968.00
2019-05-30T11:43:59.668Z,7980.00
2019-05-30T11:44:59.851Z,7896.00
2019-05-30T11:45:58.349Z,7856.00
2019-05-30T11:46:58.331Z,7880.00
2019-05-30T11:47:58.328Z,8088.00
2019-05-30T11:48:58.320Z,8388.00
2019-05-30T11:49:58.310Z,6308.00
2019-05-30T11:50:58.310Z,8624.00
2019-05-30T11:51:58.287Z,8832.00
2019-05-30T11:52:58.277Z,8960.00
2019-05-30T11:53:58.266Z,5688.00
2019-05-30T11:54:58.270Z,5512.00
2019-05-30T11:55:58.375Z,5372.00
2019-05-30T11:56:58.222Z,5396.00
2019-05-30T11:57:58.457Z,5328.00
2019-05-30T11:58:58.210Z,6228.00
2019-05-30T11:59:58.383Z,5440.00
2019-05-30T12:00:58.455Z,8488.00
2019-05-30T12:01:58.521Z,8756.00
2019-05-30T12:02:58.686Z,8816.00
2019-05-30T12:03:58.773Z,8844.00
2019-05-30T12:04:58.634Z,8888.00
2019-05-30T12:05:58.664Z,8824.00
2019-05-30T12:06:58.906Z,8668.00
2019-05-30T12:07:58.932Z,8504.00
2019-05-30T12:09:05.583Z,8356.00